Time;durP1;ratioP1;P1;durP2;ratioP2;P2;SDS_P1;SDS_P2;PMS_P1;PMS_P2;Temp;Humidity;BMP_temperature;BMP_pressure;BME280_temperature;BME280_humidity;BME280_pressure;Samples;Min_cycle;Max_cycle;Signal;HPM_P1;HPM_P2
2023/05/17 00:02:14;;;;;;;13.40;4.10;;;;;;;6.73;100.00;102300.44;5266530;28;20033;-65
2023/05/17 00:04:45;;;;;;;17.87;4.93;;;;;;;6.70;100.00;102296.03;5266459;28;20051;-65
2023/05/17 00:07:16;;;;;;;14.03;4.60;;;;;;;6.67;100.00;102297.66;5266473;28;20492;-66
2023/05/17 00:09:48;;;;;;;14.93;4.40;;;;;;;6.65;100.00;102304.50;5266507;28;20031;-66
2023/05/17 00:12:19;;;;;;;21.13;5.47;;;;;;;6.59;100.00;102302.63;5266053;28;20038;-65
2023/05/17 00:14:52;;;;;;;15.63;4.77;;;;;;;6.63;100.00;102303.59;5265654;28;20025;-65
2023/05/17 00:17:23;;;;;;;;;;;;;;;6.55;100.00;102311.13;5266680;28;20496;-65
2023/05/17 00:19:54;;;;;;;15.23;4.05;;;;;;;6.60;100.00;102311.28;5266336;28;19924;-65
2023/05/17 00:22:26;;;;;;;16.73;5.53;;;;;;;6.53;100.00;102318.88;5264867;28;20389;-66
2023/05/17 00:24:58;;;;;;;10.63;4.70;;;;;;;6.52;100.00;102305.88;5266347;28;20487;-65
2023/05/17 00:27:29;;;;;;;22.33;6.73;;;;;;;6.52;100.00;102309.34;5266063;28;20472;-66
2023/05/17 00:30:00;;;;;;;16.77;5.03;;;;;;;6.48;100.00;102304.91;5266049;28;20037;-66
2023/05/17 00:32:32;;;;;;;19.13;6.00;;;;;;;6.39;100.00;102300.34;5266067;28;20029;-65
2023/05/17 00:35:03;;;;;;;17.23;4.90;;;;;;;6.43;100.00;102301.31;5264778;28;20032;-66
2023/05/17 00:37:35;;;;;;;26.87;6.40;;;;;;;6.42;100.00;102306.44;5265551;28;20102;-66
2023/05/17 00:40:07;;;;;;;19.97;5.73;;;;;;;6.43;100.00;102314.28;5264325;28;20060;-65
2023/05/17 00:42:38;;;;;;;17.92;5.55;;;;;;;6.40;100.00;102309.00;5265802;28;20112;-66
2023/05/17 00:45:10;;;;;;;12.93;4.80;;;;;;;6.38;100.00;102314.13;5265419;28;20188;-66
2023/05/17 00:47:41;;;;;;;17.57;5.50;;;;;;;6.43;100.00;102303.03;5264464;28;20033;-66
2023/05/17 00:50:13;;;;;;;16.53;5.90;;;;;;;6.37;100.00;102301.13;5264349;28;20044;-65
2023/05/17 00:52:45;;;;;;;23.33;6.47;;;;;;;6.31;100.00;102303.53;5264379;28;20124;-65
2023/05/17 00:55:18;;;;;;;16.92;5.35;;;;;;;6.23;100.00;102302.44;5264379;28;20033;-65
2023/05/17 00:57:49;;;;;;;19.95;5.63;;;;;;;6.28;100.00;102306.94;5265436;28;20460;-66
2023/05/17 01:00:21;;;;;;;19.13;4.97;;;;;;;6.26;100.00;102311.16;5264191;28;20031;-66
2023/05/17 01:02:52;;;;;;;18.67;5.97;;;;;;;6.25;100.00;102304.25;5265305;28;20037;-66
2023/05/17 01:05:27;;;;;;;18.43;5.17;;;;;;;6.20;100.00;102311.88;5264194;28;20063;-65
2023/05/17 01:07:58;;;;;;;15.73;5.63;;;;;;;6.12;100.00;102295.25;5264019;28;20128;-65
2023/05/17 01:10:41;;;;;;;17.57;5.87;;;;;;;6.14;100.00;102306.53;5264088;28;20097;-66
2023/05/17 01:13:18;;;;;;;;;;;;;;;6.02;100.00;102300.97;5265621;28;20102;-67
2023/05/17 01:16:21;;;;;;;17.27;5.15;;;;;;;6.00;100.00;102308.69;5264750;28;19909;-66
2023/05/17 01:19:06;;;;;;;19.77;6.20;;;;;;;5.94;100.00;102298.13;5264310;28;20183;-66
2023/05/17 01:22:14;;;;;;;15.18;5.80;;;;;;;5.98;100.00;102299.13;5243479;28;20029;-66
2023/05/17 01:25:06;;;;;;;13.73;6.03;;;;;;;5.89;100.00;102284.16;5243441;28;20029;-66
2023/05/17 01:27:40;;;;;;;16.08;6.50;;;;;;;5.91;100.00;102294.53;5242939;28;20021;-67
2023/05/17 01:30:14;;;;;;;20.13;6.43;;;;;;;5.90;100.00;102297.97;5244067;28;20354;-66
2023/05/17 01:32:46;;;;;;;16.80;5.63;;;;;;;5.83;100.00;102317.63;5244044;28;20091;-65
2023/05/17 01:35:17;;;;;;;17.13;5.60;;;;;;;5.78;100.00;102303.63;5243973;28;20061;-65
2023/05/17 01:37:48;;;;;;;21.70;5.00;;;;;;;5.75;100.00;102304.44;5243699;28;20093;-68
2023/05/17 01:40:20;;;;;;;18.60;6.00;;;;;;;5.73;100.00;102303.53;5226337;28;20030;-66
2023/05/17 01:43:14;;;;;;;14.83;5.23;;;;;;;5.66;100.00;102299.84;5244605;28;20034;-64
2023/05/17 01:46:05;;;;;;;16.05;6.57;;;;;;;5.62;100.00;102294.53;5242976;28;20268;-65
2023/05/17 01:48:43;;;;;;;18.88;5.85;;;;;;;5.58;100.00;102296.13;5243443;28;20061;-67
2023/05/17 01:51:18;;;;;;;17.95;6.82;;;;;;;5.70;100.00;102295.66;5243549;28;20041;-67
2023/05/17 01:53:56;;;;;;;17.23;6.57;;;;;;;5.73;100.00;102295.75;5243650;28;20423;-67
2023/05/17 01:56:34;;;;;;;22.45;7.05;;;;;;;5.76;100.00;102297.53;5242447;28;20033;-66
2023/05/17 01:59:06;;;;;;;19.80;7.97;;;;;;;5.77;100.00;102295.00;5243300;28;20071;-66
2023/05/17 02:01:39;;;;;;;22.93;7.57;;;;;;;5.79;100.00;102301.09;5243581;28;20025;-65
2023/05/17 02:04:11;;;;;;;18.75;7.15;;;;;;;5.81;100.00;102290.78;5243132;28;20021;-65
2023/05/17 02:06:42;;;;;;;23.27;8.97;;;;;;;5.83;100.00;102302.97;5243395;28;20087;-65
2023/05/17 02:09:13;;;;;;;20.60;8.00;;;;;;;5.74;100.00;102299.22;5243076;28;20029;-65
2023/05/17 02:11:45;;;;;;;21.10;7.17;;;;;;;5.71;100.00;102302.56;5243261;28;20057;-66
2023/05/17 02:14:16;;;;;;;25.90;8.53;;;;;;;5.69;100.00;102299.06;5242568;28;20109;-66
2023/05/17 02:16:47;;;;;;;18.67;7.60;;;;;;;5.62;100.00;102304.88;5242511;28;20038;-65
2023/05/17 02:19:19;;;;;;;22.77;7.07;;;;;;;5.59;100.00;102307.38;5243148;28;20029;-65
2023/05/17 02:21:50;;;;;;;25.23;6.83;;;;;;;5.55;100.00;102305.50;5242764;28;20034;-66
2023/05/17 02:24:21;;;;;;;20.93;6.77;;;;;;;5.59;100.00;102309.97;5274820;28;20033;-64
2023/05/17 02:26:53;;;;;;;17.57;7.53;;;;;;;5.60;100.00;102303.94;5243072;28;20034;-65
2023/05/17 02:29:24;;;;;;;18.53;6.93;;;;;;;5.59;100.00;102289.28;5242662;28;20030;-65
2023/05/17 02:31:56;;;;;;;26.93;8.27;;;;;;;5.70;100.00;102311.19;5274921;28;20477;-66
2023/05/17 02:34:27;;;;;;;27.13;8.20;;;;;;;5.71;100.00;102299.13;5242833;28;20037;-66
2023/05/17 02:36:58;;;;;;;22.40;8.73;;;;;;;5.65;100.00;102299.78;5242613;28;20413;-66
2023/05/17 02:39:32;;;;;;;23.70;8.10;;;;;;;5.70;100.00;102308.59;5275042;28;20532;-66
2023/05/17 02:42:03;;;;;;;31.98;9.52;;;;;;;5.67;100.00;102311.09;5242550;28;20030;-66
2023/05/17 02:44:35;;;;;;;25.37;8.90;;;;;;;5.67;100.00;102313.66;5274190;28;20570;-66
2023/05/17 02:47:06;;;;;;;27.07;8.20;;;;;;;5.59;100.00;102321.19;5242353;28;20041;-66
2023/05/17 02:49:38;;;;;;;21.57;8.07;;;;;;;5.66;100.00;102324.84;5274914;28;20029;-66
2023/05/17 02:52:09;;;;;;;22.63;9.37;;;;;;;5.72;100.00;102322.44;5242467;28;20065;-66
2023/05/17 02:54:44;;;;;;;16.57;8.23;;;;;;;5.78;100.00;102326.94;5242577;28;20029;-65
2023/05/17 02:57:15;;;;;;;24.20;8.50;;;;;;;5.90;100.00;102329.03;5242746;28;20308;-65
2023/05/17 02:59:46;;;;;;;30.10;9.37;;;;;;;5.99;100.00;102327.66;5242278;28;20060;-65
2023/05/17 03:02:18;;;;;;;20.30;8.70;;;;;;;6.08;100.00;102328.75;5242572;28;20038;-66
2023/05/17 03:04:49;;;;;;;21.03;9.13;;;;;;;6.15;100.00;102322.91;5242295;28;20080;-66
2023/05/17 03:07:20;;;;;;;19.93;8.60;;;;;;;6.22;100.00;102334.38;5242299;28;20039;-66
2023/05/17 03:09:52;;;;;;;25.33;9.30;;;;;;;6.29;100.00;102341.47;5274236;28;20108;-66
2023/05/17 03:12:23;;;;;;;24.60;8.67;;;;;;;6.31;100.00;102335.53;5241054;28;20041;-65
2023/05/17 03:14:54;;;;;;;30.73;9.77;;;;;;;6.37;100.00;102337.41;5241929;28;20053;-66
2023/05/17 03:17:26;;;;;;;25.40;9.33;;;;;;;6.37;100.00;102338.25;5242178;28;20036;-66
2023/05/17 03:19:57;;;;;;;25.33;10.03;;;;;;;6.42;100.00;102334.94;5241949;28;20112;-66
2023/05/17 03:22:29;;;;;;;21.40;8.37;;;;;;;6.50;100.00;102341.22;5274223;28;20532;-66
2023/05/17 03:25:00;;;;;;;23.30;9.00;;;;;;;6.51;100.00;102346.44;5242041;28;20055;-65
2023/05/17 03:27:31;;;;;;;32.57;11.50;;;;;;;6.57;100.00;102346.63;5241262;28;20112;-66
2023/05/17 03:30:03;;;;;;;25.50;9.17;;;;;;;6.62;100.00;102349.34;5241927;28;20037;-66
2023/05/17 03:32:38;;;;;;;23.77;9.63;;;;;;;6.65;100.00;102356.31;5240884;28;20037;-66
2023/05/17 03:35:09;;;;;;;33.97;9.90;;;;;;;6.72;100.00;102356.56;5240513;28;20052;-65
2023/05/17 03:37:40;;;;;;;23.53;8.60;;;;;;;6.75;100.00;102354.06;5273614;28;20045;-67
2023/05/17 03:40:12;;;;;;;24.90;8.47;;;;;;;6.79;100.00;102352.41;5241715;28;20275;-66
2023/05/17 03:42:43;;;;;;;25.33;9.17;;;;;;;6.85;100.00;102364.69;5241824;28;20034;-66
2023/05/17 03:45:15;;;;;;;36.23;10.30;;;;;;;6.86;100.00;102364.72;5241310;28;20066;-65
2023/05/17 03:47:46;;;;;;;23.50;9.57;;;;;;;6.90;100.00;102358.78;5242072;28;20036;-64
2023/05/17 03:50:18;;;;;;;18.43;9.63;;;;;;;6.91;100.00;102355.34;5241595;28;20038;-65
2023/05/17 03:52:49;;;;;;;22.80;9.50;;;;;;;6.91;100.00;102360.53;5246981;28;20082;-66
2023/05/17 03:55:20;;;;;;;26.43;9.87;;;;;;;6.93;100.00;102361.44;5262197;28;20384;-65
2023/05/17 03:57:52;;;;;;;19.33;9.37;;;;;;;6.96;100.00;102365.84;5262196;28;20495;-66
2023/05/17 04:00:23;;;;;;;26.00;9.30;;;;;;;6.93;100.00;102369.22;5262085;28;20044;-66
2023/05/17 04:02:54;;;;;;;21.47;8.47;;;;;;;6.92;100.00;102367.50;5262231;28;20033;-66
2023/05/17 04:05:26;;;;;;;29.37;9.90;;;;;;;6.90;100.00;102376.91;5262043;28;20037;-65
2023/05/17 04:07:57;;;;;;;24.07;9.53;;;;;;;6.87;100.00;102379.44;5262390;28;20453;-66
2023/05/17 04:10:29;;;;;;;27.30;9.13;;;;;;;6.85;100.00;102373.31;5261745;28;20041;-66
2023/05/17 04:13:00;;;;;;;22.80;8.70;;;;;;;6.81;100.00;102380.97;5261926;28;20082;-65
2023/05/17 04:15:32;;;;;;;28.43;10.00;;;;;;;6.76;100.00;102375.66;5261306;28;20087;-66
2023/05/17 04:18:03;;;;;;;26.70;10.47;;;;;;;6.72;100.00;102373.81;5261896;28;20132;-65
2023/05/17 04:20:35;;;;;;;27.80;9.57;;;;;;;6.64;100.00;102373.59;5260704;28;20036;-65
2023/05/17 04:23:06;;;;;;;30.67;9.47;;;;;;;6.66;100.00;102382.28;5260590;28;20087;-65
2023/05/17 04:25:37;;;;;;;27.37;12.60;;;;;;;6.65;100.00;102377.06;5261656;28;20033;-65
2023/05/17 04:28:09;;;;;;;25.13;9.73;;;;;;;6.61;100.00;102386.47;5261037;28;20075;-66
2023/05/17 04:30:46;;;;;;;27.43;12.07;;;;;;;6.61;100.00;102378.69;5261887;28;20419;-65
2023/05/17 04:33:17;;;;;;;23.05;10.80;;;;;;;6.61;100.00;102390.78;5261621;28;20067;-66
2023/05/17 04:35:53;;;;;;;21.83;11.40;;;;;;;6.55;100.00;102394.94;5261803;28;20033;-65
2023/05/17 04:38:25;;;;;;;27.52;10.73;;;;;;;6.60;100.00;102400.28;5262615;28;20500;-65
2023/05/17 04:41:04;;;;;;;25.00;11.83;;;;;;;6.62;100.00;102405.47;5265301;28;20091;-65
2023/05/17 04:43:35;;;;;;;26.83;11.65;;;;;;;6.63;100.00;102407.25;5265248;28;20025;-66
2023/05/17 04:46:07;;;;;;;33.17;11.90;;;;;;;6.68;100.00;102405.66;5263794;28;20056;-65
2023/05/17 04:48:38;;;;;;;33.10;11.83;;;;;;;6.72;100.00;102407.50;5265483;28;20033;-66
2023/05/17 04:51:10;;;;;;;31.27;12.03;;;;;;;6.74;100.00;102416.22;5264263;28;20065;-66
2023/05/17 04:53:41;;;;;;;29.20;12.87;;;;;;;6.79;100.00;102414.63;5265413;28;20115;-65
2023/05/17 04:56:12;;;;;;;32.70;12.63;;;;;;;6.85;100.00;102422.56;5265308;28;20029;-65
2023/05/17 04:58:44;;;;;;;34.27;13.27;;;;;;;6.88;100.00;102417.47;5265554;28;20102;-66
2023/05/17 05:01:16;;;;;;;35.50;13.50;;;;;;;6.88;100.00;102420.06;5265213;28;20039;-65
2023/05/17 05:03:47;;;;;;;35.22;12.55;;;;;;;6.97;100.00;102422.06;5265256;28;20568;-64
2023/05/17 05:06:20;;;;;;;33.87;14.20;;;;;;;7.01;100.00;102423.03;5265038;28;20065;-65
2023/05/17 05:08:52;;;;;;;29.85;12.75;;;;;;;7.09;100.00;102427.59;5264916;28;20036;-66
2023/05/17 05:11:23;;;;;;;28.77;12.13;;;;;;;7.18;100.00;102437.34;5264673;28;20033;-65
2023/05/17 05:13:55;;;;;;;35.00;12.93;;;;;;;7.16;100.00;102440.72;5264957;28;20380;-65
2023/05/17 05:16:26;;;;;;;27.73;11.90;;;;;;;7.20;100.00;102447.78;5263139;28;20021;-67
2023/05/17 05:18:58;;;;;;;29.23;11.60;;;;;;;7.18;100.00;102447.72;5264846;28;20108;-65
2023/05/17 05:21:29;;;;;;;30.23;12.47;;;;;;;7.15;100.00;102445.03;5264648;28;20025;-66
2023/05/17 05:24:01;;;;;;;34.47;11.97;;;;;;;7.28;100.00;102451.44;5264760;28;20547;-65
2023/05/17 05:26:32;;;;;;;29.80;11.90;;;;;;;7.30;100.00;102452.38;5264599;28;20064;-65
2023/05/17 05:29:04;;;;;;;27.50;11.13;;;;;;;7.37;100.00;102456.00;5264341;28;20094;-65
2023/05/17 05:31:35;;;;;;;28.63;12.43;;;;;;;7.45;100.00;102463.16;5264165;28;20028;-66
2023/05/17 05:34:07;;;;;;;26.23;13.83;;;;;;;7.61;100.00;102467.03;5263328;28;20057;-65
2023/05/17 05:36:38;;;;;;;23.40;10.63;;;;;;;7.64;100.00;102464.50;5264444;28;20114;-65
2023/05/17 05:39:09;;;;;;;22.17;10.63;;;;;;;7.71;100.00;102469.88;5264149;28;20053;-65
2023/05/17 05:41:41;;;;;;;26.00;10.97;;;;;;;7.87;100.00;102464.22;5263065;28;20040;-65
2023/05/17 05:44:12;;;;;;;26.77;10.07;;;;;;;8.00;100.00;102457.63;5264056;28;20025;-65
2023/05/17 05:46:43;;;;;;;21.70;10.27;;;;;;;8.08;100.00;102469.06;5264219;28;20183;-66
2023/05/17 05:49:15;;;;;;;27.97;11.50;;;;;;;8.19;100.00;102462.47;5264056;28;20021;-65
2023/05/17 05:51:46;;;;;;;32.57;11.53;;;;;;;8.32;100.00;102476.63;5263366;28;20033;-66
2023/05/17 05:54:18;;;;;;;24.43;11.00;;;;;;;8.48;100.00;102477.00;5264294;28;20388;-66
2023/05/17 05:56:50;;;;;;;23.47;10.50;;;;;;;8.72;100.00;102477.53;5263801;28;20112;-66
2023/05/17 05:59:21;;;;;;;28.50;8.70;;;;;;;8.89;100.00;102487.44;5263990;28;20115;-66
2023/05/17 06:01:52;;;;;;;27.37;8.67;;;;;;;8.99;100.00;102489.38;5263964;28;20079;-64
2023/05/17 06:04:24;;;;;;;24.07;7.83;;;;;;;9.04;100.00;102497.28;5263991;28;20449;-65
2023/05/17 06:06:56;;;;;;;16.67;7.13;;;;;;;9.05;100.00;102493.84;5263881;28;20029;-65
2023/05/17 06:09:27;;;;;;;22.00;7.63;;;;;;;9.09;100.00;102495.66;5263864;28;20063;-66
2023/05/17 06:11:59;;;;;;;20.23;7.40;;;;;;;9.08;100.00;102505.19;5263562;28;20024;-65
2023/05/17 06:14:31;;;;;;;22.27;7.07;;;;;;;9.11;100.00;102510.47;5263409;28;20029;-66
2023/05/17 06:17:03;;;;;;;20.50;7.40;;;;;;;9.12;100.00;102514.81;5262520;28;20044;-65
2023/05/17 06:19:34;;;;;;;12.17;6.07;;;;;;;9.15;100.00;102520.94;5262394;28;20035;-67
2023/05/17 06:22:05;;;;;;;22.50;6.77;;;;;;;9.18;100.00;102519.28;5263515;28;20478;-65
2023/05/17 06:24:37;;;;;;;17.10;5.23;;;;;;;9.22;100.00;102515.00;5263661;28;20033;-66
2023/05/17 06:27:08;;;;;;;20.57;7.30;;;;;;;9.26;100.00;102522.91;5263843;28;20048;-67
2023/05/17 06:29:39;;;;;;;22.07;6.43;;;;;;;9.35;100.00;102531.75;5263436;28;20021;-67
2023/05/17 06:32:11;;;;;;;17.93;5.50;;;;;;;9.36;99.49;102538.72;5263172;28;20040;-65
2023/05/17 06:34:42;;;;;;;21.10;4.70;;;;;;;9.39;96.05;102529.25;5262067;28;20116;-66
2023/05/17 06:37:13;;;;;;;16.27;5.83;;;;;;;9.47;95.67;102540.69;5245145;28;20032;-66
2023/05/17 06:39:45;;;;;;;14.90;4.40;;;;;;;9.62;96.00;102532.28;5262204;28;20425;-65
2023/05/17 06:42:17;;;;;;;17.97;5.17;;;;;;;9.79;93.69;102532.63;5263163;28;20120;-66
2023/05/17 06:44:48;;;;;;;20.35;6.43;;;;;;;9.81;93.99;102528.31;5262465;28;20465;-65
2023/05/17 06:47:19;;;;;;;17.80;5.13;;;;;;;9.92;93.29;102536.31;5263473;28;20490;-66
2023/05/17 06:49:51;;;;;;;17.43;5.10;;;;;;;10.01;90.41;102527.78;5263241;28;20112;-65
2023/05/17 06:52:22;;;;;;;14.40;5.53;;;;;;;10.38;88.19;102541.47;5263225;28;20065;-65
2023/05/17 06:54:54;;;;;;;15.67;4.60;;;;;;;10.53;82.87;102535.63;5263007;28;20124;-65
2023/05/17 06:57:25;;;;;;;16.97;5.07;;;;;;;10.49;79.20;102533.81;5262906;28;20464;-65
2023/05/17 06:59:56;;;;;;;11.03;3.73;;;;;;;10.71;79.19;102533.28;5262954;28;20488;-66
2023/05/17 07:02:30;;;;;;;19.53;3.70;;;;;;;10.94;79.23;102536.22;5262628;28;20154;-65
2023/05/17 07:05:01;;;;;;;13.57;5.10;;;;;;;11.09;78.01;102537.28;5262829;28;20465;-66
2023/05/17 07:07:32;;;;;;;15.07;4.17;;;;;;;11.24;75.52;102540.09;5262762;28;20036;-65
2023/05/17 07:10:05;;;;;;;17.93;4.23;;;;;;;11.26;70.99;102537.50;5261536;28;20039;-66
2023/05/17 07:12:37;;;;;;;19.23;4.90;;;;;;;11.49;70.94;102550.84;5262612;28;20064;-66
2023/05/17 07:15:09;;;;;;;15.68;4.15;;;;;;;11.31;69.61;102556.72;5262137;28;20041;-66
2023/05/17 07:17:41;;;;;;;15.38;4.43;;;;;;;11.48;71.04;102552.56;5262622;28;20029;-65
2023/05/17 07:20:13;;;;;;;12.00;3.63;;;;;;;11.23;68.38;102554.00;5262514;28;20032;-66
2023/05/17 07:22:44;;;;;;;17.23;3.95;;;;;;;11.29;69.47;102548.00;5262440;28;20502;-65
2023/05/17 07:25:17;;;;;;;13.27;3.27;;;;;;;11.55;67.40;102558.75;5261468;28;20040;-66
2023/05/17 07:27:48;;;;;;;;;;;;;;;11.80;67.82;102559.00;5261690;28;20056;-66
2023/05/17 07:30:20;;;;;;;17.38;4.70;;;;;;;11.76;66.10;102568.56;5261107;28;19960;-65
2023/05/17 07:32:51;;;;;;;15.87;4.30;;;;;;;11.80;64.57;102565.13;5262358;28;20029;-65
2023/05/17 07:35:23;;;;;;;12.83;3.63;;;;;;;11.97;64.73;102564.44;5262674;28;20043;-65
2023/05/17 07:37:54;;;;;;;14.50;3.30;;;;;;;11.98;64.25;102567.09;5262246;28;20494;-66
2023/05/17 07:40:25;;;;;;;15.70;4.40;;;;;;;12.18;63.28;102562.03;5262313;28;20094;-65
2023/05/17 07:42:57;;;;;;;14.80;3.93;;;;;;;12.38;62.43;102571.78;5260721;28;20127;-65
2023/05/17 07:45:28;;;;;;;15.60;4.07;;;;;;;11.99;59.99;102576.69;5261568;28;20108;-66
2023/05/17 07:48:00;;;;;;;19.73;5.07;;;;;;;12.08;61.42;102580.25;5262206;28;20105;-65
2023/05/17 07:50:31;;;;;;;13.13;3.20;;;;;;;11.92;61.92;102572.25;5262145;28;20094;-66
2023/05/17 07:53:03;;;;;;;18.33;4.67;;;;;;;11.75;62.47;102579.88;5262213;28;20033;-65
2023/05/17 07:55:34;;;;;;;19.60;4.63;;;;;;;11.56;62.65;102583.13;5262203;28;20420;-65
2023/05/17 07:58:09;;;;;;;15.50;3.97;;;;;;;11.35;63.29;102581.13;5260530;28;20037;-65
2023/05/17 08:00:41;;;;;;;14.23;3.63;;;;;;;11.34;62.50;102577.66;5261861;28;20033;-65
2023/05/17 08:03:12;;;;;;;16.73;4.57;;;;;;;11.37;64.16;102584.66;5262054;28;20411;-65
2023/05/17 08:05:44;;;;;;;13.57;4.07;;;;;;;11.66;60.67;102592.84;5261791;28;20033;-66
2023/05/17 08:08:15;;;;;;;12.23;3.30;;;;;;;12.03;61.41;102577.59;5262082;28;20061;-67
2023/05/17 08:10:46;;;;;;;12.90;3.27;;;;;;;12.42;57.59;102585.78;5261543;28;20059;-65
2023/05/17 08:13:18;;;;;;;16.43;3.40;;;;;;;12.86;57.63;102585.22;5262814;28;20366;-65
2023/05/17 08:15:50;;;;;;;11.00;3.40;;;;;;;13.08;55.64;102587.09;5264574;28;20049;-66
2023/05/17 08:18:22;;;;;;;12.75;3.47;;;;;;;13.18;57.67;102588.03;5266090;28;20468;-66
2023/05/17 08:20:53;;;;;;;15.87;3.90;;;;;;;13.41;54.25;102596.06;5264739;28;20086;-66
2023/05/17 08:23:24;;;;;;;15.97;4.00;;;;;;;13.64;55.04;102588.25;5264775;28;20037;-65
2023/05/17 08:25:56;;;;;;;10.60;3.70;;;;;;;13.66;52.37;102601.38;5265997;28;20048;-65
2023/05/17 08:28:27;;;;;;;10.53;3.00;;;;;;;13.56;51.03;102586.50;5264617;28;20116;-65
2023/05/17 08:30:58;;;;;;;9.63;3.10;;;;;;;12.97;53.73;102590.53;5265627;28;20033;-66
2023/05/17 08:33:30;;;;;;;10.43;2.90;;;;;;;12.30;55.07;102589.16;5265773;28;20431;-65
2023/05/17 08:36:03;;;;;;;13.13;3.33;;;;;;;12.27;55.44;102586.50;5265815;28;20455;-66
2023/05/17 08:38:34;;;;;;;11.63;3.28;;;;;;;12.22;57.75;102596.94;5265402;28;20048;-66
2023/05/17 08:41:05;;;;;;;9.03;2.90;;;;;;;12.43;56.40;102590.13;5265589;28;20120;-65
2023/05/17 08:43:37;;;;;;;16.77;3.53;;;;;;;12.55;53.59;102600.72;5264341;28;20028;-66
2023/05/17 08:46:09;;;;;;;16.80;3.37;;;;;;;12.62;51.94;102592.03;5265428;28;20041;-66
2023/05/17 08:48:42;;;;;;;13.30;4.10;;;;;;;12.80;52.52;102593.94;5265481;28;20079;-66
2023/05/17 08:51:13;;;;;;;;;;;;;;;13.21;50.97;102598.53;5265908;28;20048;-66
2023/05/17 08:53:46;;;;;;;12.75;3.25;;;;;;;13.24;52.89;102600.28;5265237;28;19917;-66
2023/05/17 08:56:20;;;;;;;10.63;3.17;;;;;;;13.15;52.59;102593.25;5264036;28;20398;-66
2023/05/17 08:58:53;;;;;;;12.02;3.28;;;;;;;12.88;53.45;102588.72;5265233;28;20029;-65
2023/05/17 09:01:25;;;;;;;11.52;2.70;;;;;;;13.00;51.75;102596.66;5265076;28;20033;-66
2023/05/17 09:03:58;;;;;;;14.83;3.00;;;;;;;13.32;50.83;102591.63;5265107;28;20038;-65
2023/05/17 09:06:31;;;;;;;10.27;3.10;;;;;;;12.96;50.61;102597.53;5264776;28;20033;-66
2023/05/17 09:09:06;;;;;;;11.38;2.75;;;;;;;13.08;51.67;102599.34;5265059;28;20132;-66
2023/05/17 09:11:37;;;;;;;10.48;2.80;;;;;;;12.96;49.74;102600.16;5263714;28;20055;-66
2023/05/17 09:14:09;;;;;;;9.90;3.23;;;;;;;13.36;50.26;102596.88;5265025;28;20033;-66
2023/05/17 09:16:42;;;;;;;12.50;2.73;;;;;;;13.61;48.62;102597.88;5264557;28;20028;-67
2023/05/17 09:19:16;;;;;;;10.10;3.42;;;;;;;14.07;50.57;102608.50;5264884;28;20081;-65
2023/05/17 09:21:47;;;;;;;12.95;2.88;;;;;;;14.25;49.11;102597.16;5264675;28;20522;-66
2023/05/17 09:24:27;;;;;;;11.10;2.73;;;;;;;14.46;47.71;102598.91;5264139;28;20029;-65
2023/05/17 09:27:03;;;;;;;11.05;3.10;;;;;;;14.32;47.22;102598.03;5262695;28;20036;-65
2023/05/17 09:29:34;;;;;;;8.13;3.13;;;;;;;14.50;46.19;102591.91;5264603;28;20025;-66
2023/05/17 09:32:16;;;;;;;14.63;3.57;;;;;;;14.92;48.17;102587.50;5264639;28;20116;-66
2023/05/17 09:34:47;;;;;;;9.07;2.50;;;;;;;15.31;46.71;102589.16;5263452;28;20060;-65
2023/05/17 09:37:19;;;;;;;9.53;2.50;;;;;;;15.86;46.97;102595.91;5264266;28;20083;-65
2023/05/17 09:39:53;;;;;;;10.02;3.10;;;;;;;16.10;46.19;102582.59;5263159;28;20049;-66
2023/05/17 09:42:25;;;;;;;8.68;2.75;;;;;;;15.79;44.24;102596.84;5264278;28;20049;-65
2023/05/17 09:44:56;;;;;;;11.17;3.27;;;;;;;15.94;42.99;102595.88;5263692;28;20039;-65
2023/05/17 09:47:30;;;;;;;11.33;3.37;;;;;;;15.95;43.04;102581.81;5264485;28;20116;-66
2023/05/17 09:50:05;;;;;;;11.32;3.05;;;;;;;16.67;43.91;102590.91;5263990;28;20040;-65
2023/05/17 09:52:36;;;;;;;7.45;2.80;;;;;;;16.26;42.44;102586.91;5264298;28;20036;-65
2023/05/17 09:55:10;;;;;;;10.13;3.13;;;;;;;16.33;43.77;102590.34;5264166;28;20064;-65
2023/05/17 09:57:42;;;;;;;9.55;2.53;;;;;;;15.94;45.45;102590.63;5264065;28;20061;-65
2023/05/17 10:00:16;;;;;;;12.73;3.80;;;;;;;14.90;44.16;102592.75;5263983;28;20091;-65
2023/05/17 10:02:49;;;;;;;10.73;3.13;;;;;;;15.05;43.22;102599.75;5263911;28;20174;-66
2023/05/17 10:05:21;;;;;;;10.57;2.80;;;;;;;16.72;41.68;102591.72;5263983;28;20118;-65
2023/05/17 10:07:55;;;;;;;9.60;2.70;;;;;;;18.41;39.08;102593.97;5263866;28;20064;-66
2023/05/17 10:10:27;;;;;;;10.45;3.17;;;;;;;19.53;37.17;102597.16;5262625;28;20032;-65
2023/05/17 10:12:59;;;;;;;9.10;3.50;;;;;;;20.25;34.71;102586.72;5262566;28;20037;-64
2023/05/17 10:15:32;;;;;;;9.75;2.42;;;;;;;20.42;34.49;102591.63;5263302;28;20029;-65
2023/05/17 10:18:06;;;;;;;11.35;3.05;;;;;;;20.13;33.69;102607.31;5263607;28;20388;-65
2023/05/17 10:20:39;;;;;;;10.23;3.45;;;;;;;20.47;32.54;102595.03;5263625;28;20033;-65
2023/05/17 10:23:10;;;;;;;9.38;2.78;;;;;;;20.38;33.81;102591.69;5263900;28;20099;-66
2023/05/17 10:25:45;;;;;;;9.00;3.00;;;;;;;19.55;34.88;102598.91;5263500;28;20033;-65
2023/05/17 10:28:17;;;;;;;8.68;3.03;;;;;;;21.68;33.03;102598.75;5263578;28;20033;-66
2023/05/17 10:30:50;;;;;;;7.53;2.72;;;;;;;21.67;30.45;102599.69;5263337;28;20082;-64
2023/05/17 10:33:21;;;;;;;8.23;2.72;;;;;;;21.94;29.83;102597.91;5263422;28;20500;-65
2023/05/17 10:35:54;;;;;;;10.73;4.20;;;;;;;22.43;29.10;102594.59;5262919;28;20064;-67
2023/05/17 10:38:26;;;;;;;8.90;3.30;;;;;;;22.85;30.87;102584.28;5263212;28;20132;-66
2023/05/17 10:40:58;;;;;;;7.47;2.90;;;;;;;23.84;30.40;102586.78;5262825;28;20123;-66
2023/05/17 10:43:32;;;;;;;7.00;2.92;;;;;;;23.39;29.40;102586.75;5263338;28;20043;-66
2023/05/17 10:46:13;;;;;;;9.68;2.65;;;;;;;21.20;32.05;102570.94;5262389;28;20423;-64
2023/05/17 10:48:47;;;;;;;10.40;2.67;;;;;;;20.03;32.44;102574.91;5263190;28;20098;-65
2023/05/17 10:51:23;;;;;;;7.97;2.60;;;;;;;20.60;31.85;102577.88;5263121;28;20431;-65
2023/05/17 10:54:10;;;;;;;7.97;2.58;;;;;;;21.90;31.72;102585.69;5262737;28;20063;-65
2023/05/17 10:56:47;;;;;;;9.13;2.08;;;;;;;23.05;30.42;102567.56;5261769;28;20128;-66
2023/05/17 10:59:20;;;;;;;5.88;3.20;;;;;;;23.51;26.68;102569.47;5263360;28;20468;-66
2023/05/17 11:01:55;;;;;;;5.80;2.28;;;;;;;24.12;28.65;102571.47;5262847;28;20068;-66
2023/05/17 11:04:32;;;;;;;6.82;2.58;;;;;;;23.82;25.30;102575.28;5263034;28;20041;-65
2023/05/17 11:07:16;;;;;;;7.70;2.53;;;;;;;24.40;26.32;102558.69;5262774;28;20036;-64
2023/05/17 11:09:55;;;;;;;10.38;2.90;;;;;;;23.78;26.46;102567.47;5262666;28;20135;-65
2023/05/17 11:12:41;;;;;;;8.30;2.47;;;;;;;23.11;26.88;102556.75;5262699;28;20048;-65
2023/05/17 11:15:14;;;;;;;7.70;2.45;;;;;;;22.79;25.98;102565.88;5261081;28;20041;-65
2023/05/17 11:17:49;;;;;;;8.38;2.38;;;;;;;23.78;26.48;102564.81;5262678;28;20307;-66
2023/05/17 11:20:23;;;;;;;7.32;2.28;;;;;;;24.61;26.86;102564.06;5262158;28;20063;-66
2023/05/17 11:23:06;;;;;;;7.65;2.70;;;;;;;24.68;25.56;102567.31;5262565;28;20487;-66
2023/05/17 11:25:39;;;;;;;6.75;2.80;;;;;;;25.28;24.14;102567.31;5262883;28;20068;-67
2023/05/17 11:28:18;;;;;;;8.52;2.60;;;;;;;24.53;25.89;102561.69;5262248;28;20059;-66
2023/05/17 11:30:59;;;;;;;6.07;2.45;;;;;;;25.29;25.65;102561.91;5262458;28;20082;-64
2023/05/17 11:33:44;;;;;;;9.68;2.72;;;;;;;26.06;25.07;102562.66;5262440;28;20448;-66
2023/05/17 11:36:21;;;;;;;7.82;2.72;;;;;;;26.10;23.31;102552.66;5262370;28;20124;-66
2023/05/17 11:39:13;;;;;;;7.15;3.08;;;;;;;26.40;24.39;102560.94;5261886;28;20132;-66
2023/05/17 11:41:52;;;;;;;8.02;2.10;;;;;;;25.93;25.29;102554.38;5262268;28;20128;-65
2023/05/17 11:44:31;;;;;;;11.18;3.22;;;;;;;25.58;24.65;102556.97;5260798;28;20029;-65
2023/05/17 11:47:04;;;;;;;8.23;2.90;;;;;;;25.57;25.54;102554.38;5260954;28;20035;-66